Time;durP1;ratioP1;P1;durP2;ratioP2;P2;SDS_P1;SDS_P2;PMS_P1;PMS_P2;Temp;Humidity;BMP_temperature;BMP_pressure;BME280_temperature;BME280_humidity;BME280_pressure;Samples;Min_cycle;Max_cycle;Signal;HPM_P1;HPM_P2
2022/11/25 00:01:19;;;;;;;18.48;3.40;;;7.40;99.90;;;;;;4798728;29;20078;-84
2022/11/25 00:03:47;;;;;;;16.98;2.97;;;7.30;99.90;;;;;;4796275;29;20482;-84
2022/11/25 00:06:21;;;;;;;21.17;3.40;;;7.40;99.90;;;;;;4797235;29;20038;-84
2022/11/25 00:08:49;;;;;;;15.75;3.65;;;7.40;99.90;;;;;;4796165;29;20050;-84
2022/11/25 00:11:18;;;;;;;15.45;3.38;;;7.40;99.90;;;;;;4800028;29;20046;-83
2022/11/25 00:13:46;;;;;;;15.85;3.40;;;7.40;99.90;;;;;;4781675;29;20053;-84
2022/11/25 00:16:15;;;;;;;11.85;2.50;;;7.40;99.90;;;;;;4797407;29;20725;-85
2022/11/25 00:18:48;;;;;;;16.05;4.40;;;7.60;99.90;;;;;;4799904;29;20137;-85
2022/11/25 00:21:17;;;;;;;16.05;3.10;;;7.40;99.90;;;;;;4813343;29;20054;-85
2022/11/25 00:23:43;;;;;;;17.95;3.33;;;7.40;99.90;;;;;;4784056;29;20038;-84
2022/11/25 00:26:12;;;;;;;14.88;3.05;;;7.50;99.90;;;;;;4797785;29;20095;-84
2022/11/25 00:28:40;;;;;;;16.00;3.58;;;8.00;99.90;;;;;;4796337;29;20054;-85
2022/11/25 00:31:12;;;;;;;16.83;3.78;;;7.50;99.90;;;;;;4801102;29;20038;-84
2022/11/25 00:33:38;;;;;;;12.13;2.88;;;7.50;99.90;;;;;;4790014;29;20085;-85
2022/11/25 00:36:05;;;;;;;14.98;3.72;;;7.40;99.90;;;;;;4801141;29;20038;-84
2022/11/25 00:38:34;;;;;;;21.30;3.85;;;7.50;99.90;;;;;;4800831;29;20091;-84
2022/11/25 00:46:28;;;;;;;15.23;3.53;;;7.60;99.90;;;;;;4815744;29;20559;-84
2022/11/25 00:48:54;;;;;;;14.90;3.50;;;7.60;99.90;;;;;;4785057;29;20050;-85
2022/11/25 00:51:19;;;;;;;14.95;3.97;;;7.60;99.90;;;;;;4787854;29;20042;-85
2022/11/25 00:53:45;;;;;;;15.20;3.50;;;7.60;99.90;;;;;;4798302;29;20054;-83
2022/11/25 00:56:14;;;;;;;25.23;5.13;;;7.60;99.90;;;;;;4801390;29;20050;-85
2022/11/25 00:58:43;;;;;;;17.50;3.35;;;7.70;99.90;;;;;;4801266;29;20042;-85
2022/11/25 01:01:11;;;;;;;17.98;3.63;;;8.40;99.90;;;;;;4800946;29;20922;-85
2022/11/25 01:03:37;;;;;;;14.40;3.40;;;7.60;99.90;;;;;;4802767;29;20077;-84
2022/11/25 01:06:08;;;;;;;16.52;3.78;;;7.60;99.90;;;;;;4804919;29;20530;-84
2022/11/25 01:08:35;;;;;;;20.17;3.85;;;7.60;99.90;;;;;;4805931;29;20073;-84
2022/11/25 01:11:03;;;;;;;15.98;3.47;;;7.60;99.90;;;;;;4785805;29;20069;-84
2022/11/25 01:13:29;;;;;;;17.58;3.33;;;7.60;99.90;;;;;;4820870;29;20045;-84
2022/11/25 01:15:54;;;;;;;15.20;4.07;;;7.60;99.90;;;;;;4805334;29;20577;-84
2022/11/25 01:18:20;;;;;;;18.10;3.70;;;7.60;99.90;;;;;;4803976;29;20076;-84
2022/11/25 01:20:46;;;;;;;18.30;3.55;;;7.60;99.90;;;;;;4804857;29;20482;-84
2022/11/25 01:23:12;;;;;;;13.65;3.47;;;7.60;99.90;;;;;;4806829;29;20046;-84
2022/11/25 01:25:40;;;;;;;20.73;4.97;;;7.60;99.90;;;;;;4801595;29;20118;-84
2022/11/25 01:28:06;;;;;;;15.73;4.55;;;7.70;99.90;;;;;;4805333;29;20116;-85
2022/11/25 01:30:32;;;;;;;17.75;3.33;;;7.70;99.90;;;;;;4788925;29;20050;-85
2022/11/25 01:32:58;;;;;;;16.60;3.65;;;7.70;99.90;;;;;;4785363;29;20046;-84
2022/11/25 01:35:24;;;;;;;19.45;3.70;;;7.70;99.90;;;;;;4803236;29;20584;-85
2022/11/25 01:37:49;;;;;;;14.13;3.53;;;7.50;99.90;;;;;;4786875;29;20042;-84
2022/11/25 01:40:16;;;;;;;16.80;4.07;;;7.80;99.90;;;;;;4804818;29;20612;-83
2022/11/25 01:42:48;;;;;;;21.38;4.18;;;7.80;99.90;;;;;;4803852;29;20494;-85
2022/11/25 01:45:35;;;;;;;17.48;3.85;;;7.80;99.90;;;;;;4818625;29;20056;-85
2022/11/25 01:48:50;;;;;;;15.80;4.47;;;7.80;99.90;;;;;;4801862;29;20038;-85
2022/11/25 01:51:44;;;;;;;11.25;3.17;;;7.80;99.90;;;;;;4803963;29;20042;-84
2022/11/25 01:54:15;;;;;;;9.82;3.50;;;7.80;99.90;;;;;;4804194;29;20080;-85
2022/11/25 01:56:51;;;;;;;14.70;3.63;;;7.80;99.90;;;;;;4787411;29;20042;-84
2022/11/25 01:59:17;;;;;;;19.15;3.55;;;7.80;99.90;;;;;;4788985;29;20046;-83
2022/11/25 02:01:43;;;;;;;14.88;4.10;;;7.80;99.90;;;;;;4802701;29;20043;-85
2022/11/25 02:04:12;;;;;;;18.38;3.90;;;7.80;99.90;;;;;;4799319;29;20034;-85
2022/11/25 02:06:46;;;;;;;17.98;3.72;;;7.80;99.90;;;;;;4770889;29;20053;-85
2022/11/25 02:09:14;;;;;;;16.92;4.05;;;7.80;99.90;;;;;;4802705;29;20431;-84
2022/11/25 02:11:46;;;;;;;28.77;5.10;;;7.80;99.90;;;;;;4817525;29;20096;-84
2022/11/25 02:14:18;;;;;;;;;;;8.30;99.90;;;;;;4800919;29;20042;-84
2022/11/25 02:16:44;;;;;;;17.95;3.85;;;7.80;99.90;;;;;;4802819;29;19974;-84
2022/11/25 02:19:21;;;;;;;21.75;4.53;;;7.80;99.90;;;;;;4786546;29;20054;-85
2022/11/25 02:21:52;;;;;;;16.20;4.70;;;8.00;99.90;;;;;;4802094;29;20046;-82
2022/11/25 02:24:31;;;;;;;18.63;5.03;;;7.80;99.90;;;;;;4818140;29;20053;-83
2022/11/25 02:26:57;;;;;;;16.35;4.68;;;7.80;99.90;;;;;;4802036;29;20124;-84
2022/11/25 02:29:25;;;;;;;15.73;3.90;;;7.80;99.90;;;;;;4785799;29;20121;-84
2022/11/25 02:31:53;;;;;;;15.80;3.85;;;7.80;99.90;;;;;;4818111;29;20046;-84
2022/11/25 02:34:19;;;;;;;18.38;4.97;;;7.80;99.90;;;;;;4782428;29;20038;-84
2022/11/25 02:36:45;;;;;;;19.70;4.82;;;7.70;99.90;;;;;;4802417;29;20037;-85
2022/11/25 02:39:14;;;;;;;22.13;4.60;;;7.80;99.90;;;;;;4787600;29;20506;-84
2022/11/25 02:41:49;;;;;;;19.73;4.40;;;7.80;99.90;;;;;;4789393;29;20057;-85
2022/11/25 02:44:35;;;;;;;23.13;4.97;;;7.70;99.90;;;;;;4784436;29;20053;-84
2022/11/25 02:47:02;;;;;;;21.55;4.80;;;7.80;99.90;;;;;;4788642;29;20411;-85
2022/11/25 02:49:36;;;;;;;23.20;5.40;;;7.80;99.90;;;;;;4802046;29;20053;-84
2022/11/25 02:52:06;;;;;;;20.50;5.47;;;7.80;99.90;;;;;;4803552;29;20050;-85
2022/11/25 02:54:32;;;;;;;20.80;5.60;;;7.80;99.90;;;;;;4818236;29;20054;-85
2022/11/25 02:56:57;;;;;;;19.25;5.13;;;7.80;99.90;;;;;;4780822;29;20629;-85
2022/11/25 02:59:32;;;;;;;17.80;5.30;;;7.80;99.90;;;;;;4801617;29;20127;-85
2022/11/25 03:02:01;;;;;;;16.40;5.53;;;7.80;99.90;;;;;;4803918;29;20050;-84
2022/11/25 03:04:35;;;;;;;21.48;6.05;;;7.80;99.90;;;;;;4816641;29;20425;-84
2022/11/25 03:07:02;;;;;;;20.15;5.63;;;7.80;99.90;;;;;;4803461;29;20078;-85
2022/11/25 03:09:28;;;;;;;20.85;5.93;;;7.90;99.90;;;;;;4786689;29;20414;-85
2022/11/25 03:14:42;;;;;;;20.02;5.85;;;7.90;99.90;;;;;;4819293;29;20065;-84
2022/11/25 03:17:20;;;;;;;24.30;6.35;;;7.80;99.90;;;;;;4787068;29;20054;-84
2022/11/25 03:19:49;;;;;;;24.17;6.47;;;7.90;99.90;;;;;;4817712;29;20069;-85
2022/11/25 03:22:15;;;;;;;25.02;6.88;;;7.90;99.90;;;;;;4804504;29;20078;-85
2022/11/25 03:24:51;;;;;;;25.23;6.20;;;7.90;99.90;;;;;;4803642;29;20058;-85
2022/11/25 03:27:19;;;;;;;17.30;5.70;;;7.80;99.90;;;;;;4802211;29;20039;-85
2022/11/25 03:29:46;;;;;;;21.00;6.97;;;7.90;99.90;;;;;;4784718;29;20478;-85
2022/11/25 03:32:12;;;;;;;25.42;7.55;;;7.80;99.90;;;;;;4802922;29;20103;-85
2022/11/25 03:34:44;;;;;;;19.13;7.68;;;7.90;99.90;;;;;;4802564;29;20068;-84
2022/11/25 03:37:10;;;;;;;23.02;7.72;;;7.90;99.90;;;;;;4801021;29;20055;-85
2022/11/25 03:39:45;;;;;;;24.73;7.43;;;7.90;99.90;;;;;;4819173;29;20046;-85
2022/11/25 03:42:14;;;;;;;19.80;6.90;;;7.90;99.90;;;;;;4780854;29;20054;-85
2022/11/25 03:44:44;;;;;;;25.17;7.57;;;8.00;99.90;;;;;;4788179;29;20127;-85
2022/11/25 03:47:13;;;;;;;23.75;7.45;;;7.90;99.90;;;;;;4803542;29;20043;-85
2022/11/25 03:49:42;;;;;;;23.55;7.15;;;8.00;99.90;;;;;;4803931;29;20049;-85
2022/11/25 03:52:09;;;;;;;24.10;7.43;;;8.00;99.90;;;;;;4803021;29;20046;-85
2022/11/25 03:54:36;;;;;;;25.63;7.28;;;8.10;99.90;;;;;;4815950;29;20038;-85
2022/11/25 03:57:05;;;;;;;19.85;7.35;;;8.00;99.90;;;;;;4800636;29;20050;-84
2022/11/25 03:59:30;;;;;;;25.63;6.78;;;7.90;99.90;;;;;;4779893;29;20038;-85
2022/11/25 04:01:57;;;;;;;23.67;7.90;;;8.00;99.90;;;;;;4800162;29;20038;-85
2022/11/25 04:04:23;;;;;;;19.45;7.63;;;8.00;99.90;;;;;;4801144;29;20053;-84
2022/11/25 04:06:49;;;;;;;23.02;7.18;;;8.00;99.90;;;;;;4805203;29;20038;-84
2022/11/25 04:09:16;;;;;;;21.92;6.90;;;8.10;99.90;;;;;;4805218;29;20046;-85
2022/11/25 04:14:26;;;;;;;25.33;7.78;;;8.00;99.90;;;;;;4803371;29;20046;-85
2022/11/25 04:16:52;;;;;;;23.92;7.85;;;8.10;99.90;;;;;;4805433;29;20038;-85
2022/11/25 04:19:18;;;;;;;23.20;7.38;;;8.10;99.90;;;;;;4800890;29;20073;-84
2022/11/25 04:21:45;;;;;;;27.95;7.22;;;8.10;99.90;;;;;;4806500;29;20441;-85
2022/11/25 04:24:20;;;;;;;24.10;7.60;;;8.10;99.90;;;;;;4821407;29;20054;-84
2022/11/25 04:26:47;;;;;;;24.63;8.02;;;8.00;99.90;;;;;;4805667;29;20050;-85
2022/11/25 04:29:13;;;;;;;21.63;7.80;;;8.10;99.90;;;;;;4804052;29;20069;-85
2022/11/25 04:31:39;;;;;;;32.03;9.15;;;8.10;99.90;;;;;;4800996;29;20070;-85
2022/11/25 04:34:07;;;;;;;26.52;8.70;;;8.10;99.90;;;;;;4790345;29;20053;-84
2022/11/25 04:36:33;;;;;;;24.48;7.40;;;8.10;99.90;;;;;;4801766;29;20121;-85
2022/11/25 04:38:59;;;;;;;23.27;7.65;;;8.10;99.90;;;;;;4806143;29;20106;-84
2022/11/25 04:41:30;;;;;;;24.85;9.35;;;8.10;99.90;;;;;;4803631;29;20046;-85
2022/11/25 04:43:58;;;;;;;23.40;8.18;;;8.10;99.90;;;;;;4806031;29;20075;-84
2022/11/25 04:46:31;;;;;;;22.75;8.18;;;8.10;99.90;;;;;;4800255;29;20049;-85
2022/11/25 04:48:58;;;;;;;24.80;8.45;;;8.10;99.90;;;;;;4788543;29;20475;-84
2022/11/25 04:51:25;;;;;;;29.35;8.80;;;8.10;99.90;;;;;;4800877;29;20050;-85
2022/11/25 04:53:51;;;;;;;23.83;8.02;;;8.10;99.90;;;;;;4804661;29;20054;-83
2022/11/25 04:56:18;;;;;;;27.95;8.02;;;8.10;99.90;;;;;;4805559;29;20097;-84
2022/11/25 05:01:28;;;;;;;22.27;8.27;;;8.20;99.90;;;;;;4819014;29;20502;-84
2022/11/25 05:03:54;;;;;;;18.90;8.13;;;8.10;99.90;;;;;;4802592;29;20042;-84
2022/11/25 05:06:20;;;;;;;28.90;8.70;;;8.10;99.90;;;;;;4804215;29;20078;-84
2022/11/25 05:08:49;;;;;;;27.52;9.18;;;8.10;99.90;;;;;;4805362;29;20137;-84
2022/11/25 05:11:14;;;;;;;20.50;8.07;;;8.10;99.90;;;;;;4807517;29;20046;-84
2022/11/25 05:13:40;;;;;;;24.25;7.57;;;8.10;99.90;;;;;;4807314;29;20157;-84
2022/11/25 05:16:06;;;;;;;30.02;9.32;;;8.10;99.90;;;;;;4801877;29;20482;-85
2022/11/25 05:18:32;;;;;;;31.08;8.25;;;8.10;99.90;;;;;;4785675;29;20039;-84
2022/11/25 05:21:02;;;;;;;25.42;7.82;;;8.10;99.90;;;;;;4817917;29;20050;-84
2022/11/25 05:23:28;;;;;;;31.33;8.68;;;8.10;99.90;;;;;;4806557;29;20126;-84
2022/11/25 05:26:01;;;;;;;22.02;8.25;;;8.20;99.90;;;;;;4802564;29;20117;-84
2022/11/25 05:28:28;;;;;;;22.42;7.13;;;8.20;99.90;;;;;;4802472;29;20103;-84
2022/11/25 05:30:56;;;;;;;24.38;8.57;;;8.20;99.90;;;;;;4815902;29;20184;-84
2022/11/25 05:33:22;;;;;;;26.00;8.27;;;8.20;99.90;;;;;;4817266;29;20416;-84
2022/11/25 05:36:00;;;;;;;27.02;8.27;;;8.20;99.90;;;;;;4787867;29;20038;-84
2022/11/25 05:38:26;;;;;;;19.40;7.28;;;8.20;99.90;;;;;;4816579;29;20113;-85
2022/11/25 05:40:53;;;;;;;26.20;8.57;;;8.20;99.90;;;;;;4784298;29;20046;-82
2022/11/25 05:43:21;;;;;;;20.73;7.53;;;8.20;99.90;;;;;;4800751;29;20045;-84
2022/11/25 05:45:57;;;;;;;20.33;7.55;;;8.20;99.90;;;;;;4787212;29;20042;-82
2022/11/25 05:48:22;;;;;;;19.48;7.35;;;8.20;99.90;;;;;;4803269;29;20035;-83
2022/11/25 05:51:13;;;;;;;22.15;7.90;;;8.20;99.90;;;;;;4815636;29;20066;-84
2022/11/25 05:53:39;;;;;;;14.45;6.32;;;8.20;99.90;;;;;;4815774;29;20042;-83
2022/11/25 05:56:36;;;;;;;21.80;6.97;;;8.30;99.90;;;;;;4801307;29;20053;-82
2022/11/25 05:59:03;;;;;;;21.42;7.50;;;8.20;99.90;;;;;;4782978;29;20039;-83
2022/11/25 06:01:30;;;;;;;26.88;7.63;;;8.20;99.90;;;;;;4803635;29;20042;-84
2022/11/25 06:04:01;;;;;;;27.38;7.53;;;8.30;99.90;;;;;;4804106;29;20073;-84
2022/11/25 06:06:33;;;;;;;20.58;6.65;;;8.30;99.90;;;;;;4799437;29;20054;-84
2022/11/25 06:08:59;;;;;;;19.27;6.20;;;8.30;99.90;;;;;;4803768;29;20417;-82
2022/11/25 06:11:25;;;;;;;24.70;6.10;;;8.30;99.90;;;;;;4800981;29;20042;-84
2022/11/25 06:13:52;;;;;;;20.38;6.57;;;8.30;99.90;;;;;;4802158;29;20094;-84
2022/11/25 06:16:20;;;;;;;24.45;6.90;;;8.30;99.90;;;;;;4817107;29;20077;-84
2022/11/25 06:18:46;;;;;;;25.40;6.25;;;8.30;99.90;;;;;;4798905;29;20091;-83
2022/11/25 06:21:15;;;;;;;21.75;6.78;;;8.30;99.90;;;;;;4805326;29;20141;-81
2022/11/25 06:23:43;;;;;;;20.58;6.30;;;8.30;99.90;;;;;;4785494;29;20045;-81
2022/11/25 06:26:18;;;;;;;18.45;4.63;;;8.30;99.90;;;;;;4788002;29;20039;-82
2022/11/25 06:28:45;;;;;;;16.77;5.00;;;8.40;99.90;;;;;;4803791;29;20046;-84
2022/11/25 06:31:14;;;;;;;15.25;4.43;;;8.30;99.90;;;;;;4801553;29;20058;-83
2022/11/25 06:33:40;;;;;;;19.17;3.75;;;8.30;99.90;;;;;;4783687;29;20088;-84
2022/11/25 06:36:12;;;;;;;11.18;4.35;;;8.30;99.90;;;;;;4802445;29;20468;-86
2022/11/25 06:38:41;;;;;;;11.27;3.80;;;8.40;99.90;;;;;;4817833;29;20121;-83
2022/11/25 06:41:07;;;;;;;14.57;3.58;;;8.40;99.90;;;;;;4818045;29;20050;-82
2022/11/25 06:43:33;;;;;;;14.13;3.75;;;8.50;99.90;;;;;;4782659;29;20074;-83
2022/11/25 06:46:10;;;;;;;11.18;3.03;;;8.50;99.90;;;;;;4802887;29;20455;-83
2022/11/25 06:48:36;;;;;;;20.80;4.45;;;8.50;99.90;;;;;;4816954;29;20074;-83
2022/11/25 06:51:05;;;;;;;17.35;3.97;;;8.50;99.90;;;;;;4804426;29;20096;-85
2022/11/25 06:53:55;;;;;;;15.70;3.38;;;8.50;99.90;;;;;;4796488;29;20104;-85
2022/11/25 06:56:36;;;;;;;14.20;3.55;;;8.40;99.90;;;;;;4816394;29;20690;-85
2022/11/25 06:59:15;;;;;;;16.15;3.63;;;8.40;99.90;;;;;;4803202;29;20049;-83
2022/11/25 07:01:40;;;;;;;12.88;2.67;;;8.50;99.90;;;;;;4802672;29;20045;-83
2022/11/25 07:04:07;;;;;;;8.10;2.53;;;8.50;99.90;;;;;;4804674;29;20425;-83
2022/11/25 07:06:33;;;;;;;13.25;3.50;;;8.50;99.90;;;;;;4802295;29;20058;-86
2022/11/25 07:08:59;;;;;;;15.48;3.33;;;8.40;99.90;;;;;;4787162;29;20048;-85
2022/11/25 07:11:33;;;;;;;9.20;2.58;;;8.50;99.90;;;;;;4801948;29;20820;-83
2022/11/25 07:14:12;;;;;;;15.38;3.05;;;8.40;99.90;;;;;;4819300;29;20066;-85
2022/11/25 07:16:44;;;;;;;11.57;2.63;;;8.40;99.90;;;;;;4790262;29;20684;-85
2022/11/25 07:19:12;;;;;;;16.77;3.13;;;8.40;99.90;;;;;;4801722;29;20054;-84
2022/11/25 07:21:39;;;;;;;10.68;2.42;;;8.30;99.90;;;;;;4814516;29;20442;-84
2022/11/25 07:24:15;;;;;;;13.25;2.65;;;8.30;99.90;;;;;;4798370;29;20103;-85
2022/11/25 07:27:04;;;;;;;14.38;3.50;;;8.20;99.90;;;;;;4814488;29;20050;-85
2022/11/25 07:29:30;;;;;;;13.15;3.25;;;8.10;99.90;;;;;;4802841;29;20046;-85
2022/11/25 07:32:22;;;;;;;10.27;2.63;;;8.10;99.90;;;;;;4804582;29;20051;-85
2022/11/25 07:34:58;;;;;;;11.15;3.22;;;8.20;99.90;;;;;;4798468;29;20053;-86
2022/11/25 07:37:24;;;;;;;9.68;2.72;;;8.20;99.90;;;;;;4801812;29;20054;-86
2022/11/25 07:40:14;;;;;;;14.82;3.08;;;8.10;99.90;;;;;;4815983;29;20042;-86
2022/11/25 07:42:39;;;;;;;12.30;2.58;;;8.10;99.90;;;;;;4805334;29;20094;-86
2022/11/25 07:45:10;;;;;;;11.95;2.70;;;8.00;99.90;;;;;;4802487;29;20084;-86
2022/11/25 07:47:36;;;;;;;10.20;2.90;;;8.00;99.90;;;;;;4816704;29;20061;-86
2022/11/25 07:50:14;;;;;;;12.68;3.70;;;8.00;99.90;;;;;;4789657;29;20498;-87
2022/11/25 07:52:40;;;;;;;8.73;2.95;;;8.00;99.90;;;;;;4803953;29;20074;-86
2022/11/25 07:55:24;;;;;;;10.23;2.42;;;8.00;99.90;;;;;;4788565;29;20050;-86
2022/11/25 07:57:54;;;;;;;9.63;2.58;;;7.90;99.90;;;;;;4802883;29;20129;-86
2022/11/25 08:00:46;;;;;;;15.35;2.80;;;7.90;99.90;;;;;;4804081;29;20054;-86
2022/11/25 08:03:18;;;;;;;10.80;2.58;;;7.90;99.90;;;;;;4802055;29;20050;-86
2022/11/25 08:06:01;;;;;;;9.82;2.90;;;7.90;99.90;;;;;;4804639;29;20050;-86
2022/11/25 08:08:27;;;;;;;16.27;2.75;;;8.00;99.90;;;;;;4803299;29;20107;-86
2022/11/25 08:10:58;;;;;;;14.38;3.72;;;7.90;99.90;;;;;;4803088;29;20452;-86
2022/11/25 08:13:24;;;;;;;8.77;3.05;;;7.90;99.90;;;;;;4818117;29;20052;-87
2022/11/25 08:16:03;;;;;;;14.93;2.60;;;8.00;99.90;;;;;;4805982;29;20142;-86
2022/11/25 08:18:41;;;;;;;11.13;3.05;;;8.00;99.90;;;;;;4818884;29;20122;-86
2022/11/25 08:21:19;;;;;;;13.32;3.55;;;8.00;99.90;;;;;;4816273;29;20043;-85
2022/11/25 08:23:55;;;;;;;11.35;3.45;;;8.00;99.90;;;;;;4801673;29;20038;-86
2022/11/25 08:26:36;;;;;;;11.35;2.65;;;8.10;99.90;;;;;;4803172;29;20050;-86
2022/11/25 08:29:14;;;;;;;10.80;3.00;;;8.10;99.90;;;;;;4803070;29;20042;-86
2022/11/25 08:32:08;;;;;;;11.27;2.92;;;8.20;99.90;;;;;;4817932;29;20046;-86
2022/11/25 08:34:58;;;;;;;14.70;3.38;;;8.20;99.90;;;;;;4799079;29;20121;-86
2022/11/25 08:37:24;;;;;;;11.00;3.15;;;8.30;99.90;;;;;;4815558;29;20039;-86
2022/11/25 08:40:02;;;;;;;10.15;3.00;;;8.20;99.90;;;;;;4788081;29;20072;-86
2022/11/25 08:42:42;;;;;;;10.35;3.25;;;8.30;99.90;;;;;;4785454;29;20502;-86
2022/11/25 08:45:20;;;;;;;10.35;3.47;;;8.30;99.90;;;;;;4785176;29;20038;-85
2022/11/25 08:47:45;;;;;;;11.77;3.45;;;8.30;99.90;;;;;;4803621;29;20050;-86
2022/11/25 08:50:13;;;;;;;12.02;3.42;;;8.40;99.90;;;;;;4803387;29;20049;-85
2022/11/25 08:52:39;;;;;;;9.38;3.90;;;8.40;99.90;;;;;;4808171;29;20805;-86
2022/11/25 08:55:13;;;;;;;9.55;3.13;;;8.40;99.90;;;;;;4812587;29;20148;-86
2022/11/25 08:57:39;;;;;;;10.90;3.38;;;8.40;99.90;;;;;;4789970;29;20046;-85
2022/11/25 09:00:11;;;;;;;11.15;3.20;;;8.40;99.90;;;;;;4803826;29;20125;-86
2022/11/25 09:02:37;;;;;;;13.88;4.13;;;8.50;99.90;;;;;;4789500;29;20129;-85
2022/11/25 09:05:19;;;;;;;12.13;3.63;;;8.50;99.90;;;;;;4804175;29;20136;-86
2022/11/25 09:07:54;;;;;;;12.35;4.15;;;8.80;99.90;;;;;;4788839;29;20065;-86
2022/11/25 09:10:44;;;;;;;9.13;3.57;;;8.50;99.90;;;;;;4802150;29;20502;-86
2022/11/25 09:13:12;;;;;;;10.32;3.50;;;8.60;99.90;;;;;;4807466;29;20050;-86
2022/11/25 09:15:50;;;;;;;9.13;3.53;;;8.60;99.90;;;;;;4819114;29;20524;-86
2022/11/25 09:18:39;;;;;;;13.10;4.10;;;9.00;99.90;;;;;;4804365;29;20046;-86
2022/11/25 09:40:23;;;;;;;12.93;3.65;;;9.00;99.90;;;;;;4757385;30;20713;-87
2022/11/25 10:24:53;;;;;;;9.60;2.58;;;9.80;99.90;;;;;;4806177;29;20475;-87
2022/11/25 10:32:15;;;;;;;10.35;2.78;;;10.40;99.90;;;;;;4801068;29;20114;-85
2022/11/25 10:35:28;;;;;;;9.00;2.40;;;10.10;99.90;;;;;;4789092;29;20544;-89
2022/11/25 10:42:53;;;;;;;8.65;3.03;;;10.10;99.90;;;;;;4800137;29;20046;-85
2022/11/25 10:54:18;;;;;;;9.75;2.22;;;10.30;99.90;;;;;;4750825;30;20541;-87
2022/11/25 11:05:28;;;;;;;10.68;2.00;;;10.70;99.90;;;;;;4667039;30;20082;-85
2022/11/25 11:35:31;;;;;;;10.07;2.00;;;12.10;99.90;;;;;;4616614;31;20034;-86
2022/11/25 11:38:58;;;;;;;10.40;1.80;;;12.10;99.90;;;;;;4627443;30;20475;-85
2022/11/25 11:46:49;;;;;;;8.50;1.95;;;12.10;99.90;;;;;;4642523;30;20081;-84
2022/11/25 11:53:50;;;;;;;7.63;1.65;;;12.10;99.90;;;;;;4708494;30;20055;-85
2022/11/25 12:12:06;;;;;;;10.65;2.28;;;11.80;99.90;;;;;;4744356;30;20079;-85
2022/11/25 12:15:19;;;;;;;9.57;2.28;;;11.70;99.90;;;;;;4732648;30;20056;-86
2022/11/25 12:18:44;;;;;;;7.95;1.60;;;11.60;99.90;;;;;;4766614;30;20073;-86
2022/11/25 12:21:51;;;;;;;8.18;1.75;;;11.50;99.90;;;;;;4766974;30;20047;-86
2022/11/25 12:24:59;;;;;;;12.25;2.22;;;11.50;99.90;;;;;;4731620;30;20044;-86
2022/11/25 12:28:18;;;;;;;7.50;1.83;;;11.50;99.90;;;;;;4718630;30;20589;-85
2022/11/25 12:31:18;;;;;;;10.27;2.42;;;11.50;99.90;;;;;;4729120;30;20551;-85
2022/11/25 12:34:45;;;;;;;10.57;2.17;;;11.40;99.90;;;;;;4716954;30;20143;-85
2022/11/25 12:37:42;;;;;;;11.75;2.42;;;11.30;99.90;;;;;;4693949;30;20061;-85
2022/11/25 12:40:52;;;;;;;11.00;2.58;;;11.40;99.90;;;;;;4766345;29;20087;-86
2022/11/25 12:43:49;;;;;;;11.20;2.70;;;11.40;99.90;;;;;;4773355;30;20055;-86
2022/11/25 12:46:48;;;;;;;8.40;1.80;;;11.10;99.90;;;;;;4785341;29;20139;-85
2022/11/25 12:49:32;;;;;;;10.52;2.40;;;11.40;99.90;;;;;;4765318;29;20051;-86
2022/11/25 12:52:51;;;;;;;8.40;1.67;;;11.50;99.90;;;;;;4767214;29;20055;-85
2022/11/25 12:55:38;;;;;;;8.35;2.28;;;11.50;99.90;;;;;;4780963;29;20109;-86
2022/11/25 12:58:41;;;;;;;10.00;2.95;;;11.40;99.90;;;;;;4771825;29;20054;-85
2022/11/25 13:01:38;;;;;;;13.48;1.90;;;11.40;99.90;;;;;;4768812;29;20049;-86
2022/11/25 13:04:42;;;;;;;15.48;3.15;;;11.30;99.90;;;;;;4783175;29;20058;-86
2022/11/25 13:07:25;;;;;;;14.93;2.65;;;11.30;99.90;;;;;;4812283;29;20407;-86
2022/11/25 13:10:09;;;;;;;13.52;3.05;;;11.30;99.90;;;;;;4805831;29;20386;-86
2022/11/25 13:13:09;;;;;;;11.48;2.20;;;11.30;99.90;;;;;;4802589;29;20038;-86
2022/11/25 13:15:50;;;;;;;11.02;2.03;;;11.30;99.90;;;;;;4802583;29;20482;-85
2022/11/25 13:18:41;;;;;;;14.02;2.55;;;11.30;99.90;;;;;;4821055;29;20049;-86
2022/11/25 13:21:35;;;;;;;11.15;1.83;;;11.30;99.90;;;;;;4820506;29;20034;-86
2022/11/25 13:24:33;;;;;;;14.82;2.78;;;11.30;99.90;;;;;;4804800;29;20049;-86
2022/11/25 13:27:51;;;;;;;10.70;1.90;;;11.20;99.90;;;;;;4823406;29;20490;-86
2022/11/25 13:30:41;;;;;;;9.23;2.03;;;11.20;99.90;;;;;;4808123;29;20072;-86
2022/11/25 13:33:25;;;;;;;10.27;2.80;;;11.10;99.90;;;;;;4822297;29;20046;-86
2022/11/25 13:35:58;;;;;;;7.65;2.28;;;11.10;99.90;;;;;;4804921;29;20047;-86
2022/11/25 13:38:36;;;;;;;16.95;3.42;;;11.20;99.90;;;;;;4808773;29;20093;-86
2022/11/25 13:41:14;;;;;;;14.15;2.20;;;11.10;99.90;;;;;;4804141;29;20735;-86
2022/11/25 13:44:31;;;;;;;12.40;2.97;;;11.10;99.90;;;;;;4806368;29;20077;-86
2022/11/25 13:47:41;;;;;;;11.25;2.35;;;11.10;99.90;;;;;;4805199;29;20058;-86
2022/11/25 13:50:22;;;;;;;11.07;2.30;;;11.10;99.90;;;;;;4807968;29;20100;-86
2022/11/25 13:56:52;;;;;;;12.40;2.20;;;11.10;99.90;;;;;;4815305;29;20140;-86
2022/11/25 14:00:17;;;;;;;13.02;2.40;;;11.00;99.90;;;;;;4823720;29;20049;-85
2022/11/25 14:03:31;;;;;;;7.72;1.80;;;11.00;99.90;;;;;;4807625;29;20077;-85
2022/11/25 14:06:33;;;;;;;11.40;2.20;;;11.00;99.90;;;;;;4768808;30;20051;-85
2022/11/25 14:09:56;;;;;;;9.48;2.13;;;11.00;99.90;;;;;;4769641;30;20800;-85
2022/11/25 14:12:57;;;;;;;10.45;2.53;;;11.00;99.90;;;;;;4769904;29;20053;-86
2022/11/25 14:16:08;;;;;;;18.55;3.10;;;11.00;99.90;;;;;;4770421;30;20047;-86
2022/11/25 14:19:06;;;;;;;10.27;1.95;;;11.00;99.90;;;;;;4749884;30;20066;-86
2022/11/25 14:21:58;;;;;;;17.27;2.85;;;11.10;99.90;;;;;;4750900;30;20138;-85
2022/11/25 14:25:31;;;;;;;17.10;3.13;;;11.10;99.90;;;;;;4769154;30;20043;-85
2022/11/25 14:28:34;;;;;;;16.60;2.95;;;11.10;99.90;;;;;;4757490;30;20474;-86
2022/11/25 14:32:23;;;;;;;18.05;2.58;;;11.10;99.90;;;;;;4764031;30;20592;-86
2022/11/25 14:36:18;;;;;;;15.68;2.90;;;11.30;99.90;;;;;;4763636;30;20055;-86
2022/11/25 14:39:04;;;;;;;14.90;2.55;;;11.10;99.90;;;;;;4771147;29;20126;-86
2022/11/25 14:42:09;;;;;;;17.08;3.30;;;11.00;99.90;;;;;;4758851;30;20526;-86
2022/11/25 14:45:46;;;;;;;14.73;2.85;;;11.00;99.90;;;;;;4784744;29;20051;-85
2022/11/25 14:48:24;;;;;;;14.80;2.58;;;10.90;99.90;;;;;;4720321;30;20059;-86
2022/11/25 14:51:01;;;;;;;9.88;1.83;;;10.90;99.90;;;;;;4746723;29;20059;-85
2022/11/25 14:53:57;;;;;;;17.77;2.20;;;10.80;99.90;;;;;;4806369;29;20117;-86
2022/11/25 14:56:31;;;;;;;12.07;2.30;;;10.80;99.90;;;;;;4802160;29;20083;-85
2022/11/25 14:58:58;;;;;;;16.40;2.00;;;10.70;99.90;;;;;;4805077;29;20494;-86
2022/11/25 15:01:33;;;;;;;11.23;2.25;;;10.60;99.90;;;;;;4789973;29;20034;-86
2022/11/25 15:04:31;;;;;;;11.93;2.20;;;10.60;99.90;;;;;;4803145;29;20132;-86
2022/11/25 15:07:28;;;;;;;12.75;2.55;;;10.60;99.90;;;;;;4800865;29;20474;-86
2022/11/25 15:10:35;;;;;;;14.55;2.22;;;10.30;99.90;;;;;;4755849;30;20051;-85
2022/11/25 15:13:49;;;;;;;14.82;2.72;;;10.50;99.90;;;;;;4756114;29;20052;-86
2022/11/25 15:16:28;;;;;;;16.60;2.35;;;10.40;99.90;;;;;;4814061;29;20108;-86
2022/11/25 15:19:41;;;;;;;14.27;2.65;;;10.30;99.90;;;;;;4806835;29;20114;-86
2022/11/25 15:22:19;;;;;;;16.45;2.42;;;10.30;99.90;;;;;;4772644;29;20047;-85
2022/11/25 15:25:00;;;;;;;9.10;1.92;;;10.10;99.90;;;;;;4818802;29;20139;-85
2022/11/25 15:28:00;;;;;;;12.55;2.17;;;10.10;99.90;;;;;;4795445;29;20041;-86
2022/11/25 15:30:33;;;;;;;11.00;2.15;;;10.00;99.90;;;;;;4819626;29;20057;-85
2022/11/25 15:33:22;;;;;;;10.70;1.50;;;9.90;99.90;;;;;;4801462;29;20043;-84
2022/11/25 15:35:48;;;;;;;13.65;2.17;;;9.40;99.90;;;;;;4778519;29;20125;-85
2022/11/25 15:38:33;;;;;;;14.23;2.00;;;9.70;99.90;;;;;;4782102;29;20117;-85
2022/11/25 15:41:00;;;;;;;15.38;2.45;;;9.70;99.90;;;;;;4804429;29;20034;-85
2022/11/25 15:43:50;;;;;;;10.20;1.90;;;9.70;99.90;;;;;;4804146;29;20088;-86
2022/11/25 15:46:17;;;;;;;8.70;1.60;;;9.60;99.90;;;;;;4786167;29;20137;-86
2022/11/25 15:48:48;;;;;;;13.32;2.30;;;9.60;99.90;;;;;;4787543;29;20585;-85
2022/11/25 15:51:35;;;;;;;13.98;1.60;;;9.40;99.90;;;;;;4820644;29;20115;-85
2022/11/25 15:54:12;;;;;;;5.70;1.08;;;9.40;99.90;;;;;;4807019;29;20197;-85
2022/11/25 15:56:43;;;;;;;5.40;1.35;;;9.20;99.90;;;;;;4801672;29;20047;-83
2022/11/25 16:00:04;;;;;;;5.22;0.93;;;9.10;99.90;;;;;;4800344;29;20376;-85
2022/11/25 16:02:40;;;;;;;12.70;1.90;;;8.90;99.90;;;;;;4746490;30;20075;-83
2022/11/25 16:05:15;;;;;;;7.50;1.60;;;8.80;99.90;;;;;;4799800;29;20188;-83
2022/11/25 16:07:49;;;;;;;12.63;1.48;;;8.70;99.90;;;;;;4801400;29;20501;-84
2022/11/25 16:10:47;;;;;;;11.40;1.65;;;8.60;99.90;;;;;;4793224;29;20604;-84
2022/11/25 16:13:22;;;;;;;11.32;1.98;;;8.50;99.90;;;;;;4816421;29;20427;-84
2022/11/25 16:16:20;;;;;;;13.07;1.73;;;8.60;99.90;;;;;;4800028;29;20070;-85
2022/11/25 16:19:12;;;;;;;7.43;1.17;;;8.60;99.90;;;;;;4817197;29;20129;-84